createdAt,value
2023-03-29T00:02:02.133Z,99361.50
2023-03-29T00:04:28.870Z,99361.97
2023-03-29T00:06:55.875Z,99363.38
2023-03-29T00:09:23.458Z,99365.63
2023-03-29T00:11:50.154Z,99368.03
2023-03-29T00:14:16.913Z,99366.81
2023-03-29T00:16:44.985Z,99357.19
2023-03-29T00:19:11.817Z,99347.69
2023-03-29T00:21:38.451Z,99344.00
2023-03-29T00:24:05.516Z,99345.22
2023-03-29T00:26:32.183Z,99340.81
2023-03-29T00:28:58.969Z,99347.84
2023-03-29T00:31:26.509Z,99340.69
2023-03-29T00:33:53.210Z,99339.34
2023-03-29T00:36:19.913Z,99340.28
2023-03-29T00:38:46.793Z,99334.34
2023-03-29T00:41:13.964Z,99327.94
2023-03-29T00:43:51.975Z,99328.56
2023-03-29T00:46:18.692Z,99315.06
2023-03-29T00:48:45.491Z,99328.16
2023-03-29T00:51:14.936Z,99315.16
2023-03-29T00:53:44.089Z,99312.91
2023-03-29T00:56:14.335Z,99310.59
2023-03-29T00:58:58.544Z,99305.13
2023-03-29T01:01:34.276Z,99297.56
2023-03-29T01:04:18.136Z,99295.56
2023-03-29T01:07:00.902Z,99285.53
2023-03-29T01:09:30.758Z,99285.84
2023-03-29T01:12:02.762Z,99271.34
2023-03-29T01:14:35.445Z,99266.81
2023-03-29T01:17:02.144Z,99257.81
2023-03-29T01:19:34.400Z,99258.06
2023-03-29T01:22:06.612Z,99244.66
2023-03-29T01:24:47.173Z,99248.47
2023-03-29T01:27:42.699Z,99245.16
2023-03-29T01:30:14.827Z,99247.09
2023-03-29T01:32:51.373Z,99237.28
2023-03-29T01:35:41.019Z,99228.97
2023-03-29T01:38:18.473Z,99236.84
2023-03-29T01:40:45.263Z,99237.81
2023-03-29T01:43:45.766Z,99225.72
2023-03-29T01:46:21.663Z,99215.25
2023-03-29T01:48:54.842Z,99216.09
2023-03-29T01:51:41.944Z,99201.75
2023-03-29T01:54:15.184Z,99209.53
2023-03-29T01:56:44.121Z,99209.22
2023-03-29T01:59:16.106Z,99208.53
2023-03-29T02:01:49.438Z,99205.84
2023-03-29T02:04:21.856Z,99202.81
2023-03-29T02:06:50.418Z,99193.78
2023-03-29T02:09:17.904Z,99187.47
2023-03-29T02:11:45.521Z,99180.53
2023-03-29T02:14:13.881Z,99184.22
2023-03-29T02:16:40.566Z,99178.47
2023-03-29T02:19:09.098Z,99174.06
2023-03-29T02:21:51.907Z,99177.78
2023-03-29T02:24:21.249Z,99178.69
2023-03-29T02:26:48.848Z,99172.53
2023-03-29T02:29:15.857Z,99165.59
2023-03-29T02:31:53.760Z,99170.00
2023-03-29T02:34:29.740Z,99167.94
2023-03-29T02:37:06.845Z,99173.72
2023-03-29T02:39:35.974Z,99166.22
2023-03-29T02:42:05.865Z,99164.19
2023-03-29T02:44:37.267Z,99161.13
2023-03-29T02:47:13.251Z,99155.44
2023-03-29T02:49:39.966Z,99151.44
2023-03-29T02:52:12.360Z,99154.06
2023-03-29T02:54:43.297Z,99149.97
2023-03-29T02:57:11.189Z,99140.81
2023-03-29T02:59:38.700Z,99141.25
2023-03-29T03:02:05.850Z,99136.00
2023-03-29T03:04:35.671Z,99140.19
2023-03-29T03:07:05.082Z,99130.88
2023-03-29T03:09:31.899Z,99131.78
2023-03-29T03:11:58.588Z,99130.75
2023-03-29T03:14:25.422Z,99122.28
2023-03-29T03:16:52.908Z,99127.41
2023-03-29T03:19:20.045Z,99112.00
2023-03-29T03:21:47.131Z,99111.50
2023-03-29T03:24:13.892Z,99110.41
2023-03-29T03:26:40.504Z,99105.06
2023-03-29T03:29:07.195Z,99114.50
2023-03-29T03:31:33.890Z,99105.59
2023-03-29T03:34:01.255Z,99108.06
2023-03-29T03:36:31.438Z,99113.06
2023-03-29T03:38:58.025Z,99109.34
2023-03-29T03:41:26.173Z,99116.53
2023-03-29T03:43:52.991Z,99115.53
2023-03-29T03:46:19.739Z,99111.28
2023-03-29T03:48:47.044Z,99107.75
2023-03-29T03:51:14.118Z,99109.59
2023-03-29T03:53:40.822Z,99101.72
2023-03-29T03:56:10.648Z,99108.81
2023-03-29T03:58:38.064Z,99088.53
2023-03-29T04:01:05.602Z,99090.91
2023-03-29T04:03:32.702Z,99089.13
2023-03-29T04:06:01.246Z,99085.66
2023-03-29T04:08:28.020Z,99094.31
2023-03-29T04:10:56.247Z,99089.06
2023-03-29T04:13:23.593Z,99085.66
2023-03-29T04:15:54.176Z,99090.91
2023-03-29T04:18:21.704Z,99079.50
2023-03-29T04:20:48.962Z,99078.72
2023-03-29T04:23:16.044Z,99075.97
2023-03-29T04:25:42.748Z,99071.31
2023-03-29T04:28:10.965Z,99077.22
2023-03-29T04:30:37.733Z,99080.69
2023-03-29T04:33:04.513Z,99081.34
2023-03-29T04:35:31.659Z,99082.59
2023-03-29T04:37:58.408Z,99081.53
2023-03-29T04:40:25.107Z,99076.38
2023-03-29T04:42:51.772Z,99071.00
2023-03-29T04:45:18.618Z,99074.31
2023-03-29T04:47:46.430Z,99061.97
2023-03-29T04:50:13.956Z,99064.25
2023-03-29T04:52:40.966Z,99057.09
2023-03-29T04:55:08.506Z,99056.25
2023-03-29T04:57:35.348Z,99052.69
2023-03-29T05:00:02.449Z,99051.50
2023-03-29T05:02:32.427Z,99046.34
2023-03-29T05:04:59.400Z,99048.03
2023-03-29T05:07:26.155Z,99045.41
2023-03-29T05:09:52.773Z,99035.69
2023-03-29T05:12:19.564Z,99043.72
2023-03-29T05:14:46.158Z,99043.06
2023-03-29T05:17:12.788Z,99038.66
2023-03-29T05:19:39.450Z,99046.41
2023-03-29T05:22:06.728Z,99041.28
2023-03-29T05:24:33.374Z,99051.44
2023-03-29T05:27:00.150Z,99046.19
2023-03-29T05:29:27.202Z,99033.94
2023-03-29T05:31:54.182Z,99035.44
2023-03-29T05:34:20.889Z,99036.09
2023-03-29T05:36:49.066Z,99030.47
2023-03-29T05:39:15.777Z,99040.28
2023-03-29T05:41:42.341Z,99035.63
2023-03-29T05:44:09.261Z,99030.03
2023-03-29T05:46:35.957Z,99035.06
2023-03-29T05:49:02.733Z,99027.97
2023-03-29T05:51:29.408Z,99021.63
2023-03-29T05:53:56.296Z,99022.38
2023-03-29T05:56:22.985Z,99025.59
2023-03-29T05:58:49.632Z,99018.28
2023-03-29T06:01:19.487Z,99014.59
2023-03-29T06:03:47.494Z,99021.41
2023-03-29T06:06:16.388Z,99015.75
2023-03-29T06:08:44.486Z,99013.03
2023-03-29T06:11:13.413Z,99018.09
2023-03-29T06:13:42.220Z,99012.31
2023-03-29T06:16:10.929Z,99014.66
2023-03-29T06:18:41.236Z,99024.81
2023-03-29T06:21:09.332Z,99020.84
2023-03-29T06:23:36.593Z,99017.88
2023-03-29T06:26:03.620Z,99024.44
2023-03-29T06:28:30.685Z,99017.81
2023-03-29T06:31:02.954Z,99018.31
2023-03-29T06:33:32.400Z,99017.84
2023-03-29T06:35:59.399Z,99013.22
2023-03-29T06:38:28.464Z,99002.56
2023-03-29T06:41:07.106Z,99007.06
2023-03-29T06:43:34.820Z,99008.56
2023-03-29T06:46:02.243Z,99009.88
2023-03-29T06:48:29.494Z,99017.97
2023-03-29T06:50:56.493Z,99007.56
2023-03-29T06:53:23.307Z,99011.50
2023-03-29T06:55:51.991Z,99014.19
2023-03-29T06:58:19.048Z,99016.28
2023-03-29T07:00:45.910Z,99015.13
2023-03-29T07:03:20.021Z,98999.94
2023-03-29T07:05:47.920Z,99005.00
2023-03-29T07:08:16.625Z,99019.25
2023-03-29T07:10:47.524Z,99021.94
2023-03-29T07:13:15.662Z,99019.59
2023-03-29T07:15:43.855Z,99017.97
2023-03-29T07:18:12.761Z,99013.25
2023-03-29T07:20:40.597Z,99021.19
2023-03-29T07:23:09.195Z,99016.69
2023-03-29T07:25:37.187Z,99017.94
2023-03-29T07:28:04.564Z,99022.97
2023-03-29T07:30:32.507Z,99013.06
2023-03-29T07:33:00.582Z,99020.06
2023-03-29T07:35:27.992Z,99028.13
2023-03-29T07:37:58.485Z,99032.78
2023-03-29T07:40:26.427Z,99026.31
2023-03-29T07:42:55.708Z,99029.16
2023-03-29T07:45:26.727Z,99031.78
2023-03-29T07:47:59.558Z,99025.88
2023-03-29T07:50:27.294Z,99032.03
2023-03-29T07:52:54.293Z,99032.72
2023-03-29T07:55:21.038Z,99027.00
2023-03-29T07:57:49.357Z,99022.78
2023-03-29T08:00:17.213Z,99029.66
2023-03-29T08:02:49.830Z,99033.94
2023-03-29T08:05:26.010Z,99040.72
2023-03-29T08:07:56.295Z,99043.25
2023-03-29T08:10:23.354Z,99023.22
2023-03-29T08:12:52.405Z,99027.44
2023-03-29T08:15:19.392Z,99026.59
2023-03-29T08:17:46.138Z,99017.75
2023-03-29T08:20:16.143Z,99007.06
2023-03-29T08:22:42.807Z,99010.63
2023-03-29T08:25:12.452Z,99010.88
2023-03-29T08:27:39.814Z,99018.78
2023-03-29T08:30:09.514Z,99003.47
2023-03-29T08:32:37.549Z,99002.50
2023-03-29T08:35:06.760Z,98990.47
2023-03-29T08:37:33.565Z,98995.75
2023-03-29T08:40:01.141Z,98985.50
2023-03-29T08:42:46.530Z,99000.94
2023-03-29T08:45:50.928Z,99001.13
2023-03-29T08:48:28.952Z,98999.69
2023-03-29T08:51:03.291Z,98999.53
2023-03-29T08:53:41.531Z,98994.41
2023-03-29T08:56:14.373Z,99004.53
2023-03-29T08:58:42.396Z,98992.03
2023-03-29T09:01:11.558Z,99007.13
2023-03-29T09:03:48.102Z,98989.34
2023-03-29T09:06:16.575Z,99001.16
2023-03-29T09:08:47.914Z,99004.22
2023-03-29T09:11:23.260Z,99003.97
2023-03-29T09:13:58.936Z,98989.22
2023-03-29T09:16:34.606Z,98996.13
2023-03-29T09:19:19.100Z,98985.91
2023-03-29T09:21:59.719Z,98993.16
2023-03-29T09:24:42.726Z,98995.91
2023-03-29T09:27:16.797Z,98998.47
2023-03-29T09:30:11.489Z,99003.38
2023-03-29T09:32:48.561Z,98994.59
2023-03-29T09:35:24.425Z,98988.38
2023-03-29T09:37:54.015Z,98999.09
2023-03-29T09:40:31.919Z,98996.81
2023-03-29T09:43:01.287Z,99002.22
2023-03-29T09:45:28.010Z,98994.88
2023-03-29T09:47:59.200Z,98984.56
2023-03-29T09:50:47.508Z,98981.41
2023-03-29T09:53:19.574Z,98974.47
2023-03-29T09:55:50.488Z,98980.66
2023-03-29T09:58:22.072Z,98976.34
2023-03-29T10:00:50.148Z,98979.34
2023-03-29T10:03:37.043Z,98990.44
2023-03-29T10:06:06.397Z,98989.84
2023-03-29T10:08:37.239Z,98995.63
2023-03-29T10:11:09.746Z,98989.00
2023-03-29T10:13:46.137Z,98992.00
2023-03-29T10:16:29.779Z,98973.59
2023-03-29T10:18:56.591Z,98970.38
2023-03-29T10:21:23.850Z,98974.47
2023-03-29T10:23:58.728Z,98977.19
2023-03-29T10:26:28.584Z,98959.47
2023-03-29T10:28:57.408Z,98960.22
2023-03-29T10:31:25.395Z,98962.41
2023-03-29T10:34:00.035Z,98962.09
2023-03-29T10:36:27.840Z,98969.56
2023-03-29T10:38:58.870Z,98965.44
2023-03-29T10:41:27.401Z,98971.63
2023-03-29T10:43:54.389Z,98965.25
2023-03-29T10:46:30.364Z,98963.25
2023-03-29T10:48:59.459Z,98959.22
2023-03-29T10:51:30.185Z,98956.59
2023-03-29T10:54:00.410Z,98956.09
2023-03-29T10:56:29.966Z,98956.53
2023-03-29T10:59:15.088Z,98963.19
2023-03-29T11:02:15.692Z,98960.47
2023-03-29T11:05:01.046Z,98956.78
2023-03-29T11:07:42.722Z,98967.81
2023-03-29T11:10:33.971Z,98961.63
2023-03-29T11:13:00.566Z,98964.63
2023-03-29T11:15:42.773Z,98954.09
2023-03-29T11:18:26.349Z,98952.44
2023-03-29T11:20:52.877Z,98938.31
2023-03-29T11:23:26.133Z,98932.88
2023-03-29T11:26:05.353Z,98933.75
2023-03-29T11:28:39.246Z,98936.53
2023-03-29T11:31:15.126Z,98935.28
2023-03-29T11:33:56.995Z,98933.78
2023-03-29T11:36:35.999Z,98926.88
2023-03-29T11:39:13.225Z,98930.19
2023-03-29T11:41:44.959Z,98925.91
2023-03-29T11:44:18.585Z,98927.84
2023-03-29T11:46:54.681Z,98931.19
2023-03-29T11:49:44.660Z,98935.25
2023-03-29T11:52:40.955Z,98934.53
2023-03-29T11:55:18.193Z,98929.94
2023-03-29T11:58:00.446Z,98929.03
2023-03-29T12:00:32.904Z,98932.97
2023-03-29T12:03:13.321Z,98925.44
2023-03-29T12:05:45.690Z,98925.22
2023-03-29T12:08:21.442Z,98922.50
2023-03-29T12:11:14.411Z,98918.72
2023-03-29T12:13:58.587Z,98905.66
2023-03-29T12:16:46.896Z,98900.66
2023-03-29T12:19:22.019Z,98892.50
2023-03-29T12:21:49.701Z,98900.91
2023-03-29T12:24:18.958Z,98889.41
2023-03-29T12:27:12.420Z,98893.09
2023-03-29T12:29:52.325Z,98890.81
2023-03-29T12:32:21.801Z,98898.25
2023-03-29T12:35:10.294Z,98896.72
2023-03-29T12:37:59.017Z,98886.88
2023-03-29T12:40:28.403Z,98888.97
2023-03-29T12:43:01.365Z,98880.47
2023-03-29T12:45:51.077Z,98884.13
2023-03-29T12:48:27.374Z,98880.19
2023-03-29T12:51:03.839Z,98875.28
2023-03-29T12:53:50.605Z,98886.06
2023-03-29T12:56:23.714Z,98886.34
2023-03-29T12:59:06.631Z,98884.56
2023-03-29T13:01:42.767Z,98876.72
2023-03-29T13:04:18.510Z,98878.66
2023-03-29T13:06:53.634Z,98873.78
2023-03-29T13:09:24.590Z,98869.75
2023-03-29T13:12:17.800Z,98869.97
2023-03-29T13:14:49.801Z,98875.59
2023-03-29T13:17:45.138Z,98869.56
2023-03-29T13:20:33.284Z,98867.66
2023-03-29T13:23:24.629Z,98863.44
2023-03-29T13:25:51.344Z,98866.09
2023-03-29T13:28:35.900Z,98863.38
2023-03-29T13:31:11.688Z,98852.84
2023-03-29T13:33:59.496Z,98855.03
2023-03-29T13:36:59.744Z,98856.25
2023-03-29T13:39:36.688Z,98859.47
2023-03-29T13:42:29.014Z,98854.13
2023-03-29T13:45:13.264Z,98839.63
2023-03-29T13:47:58.408Z,98837.88
2023-03-29T13:50:51.563Z,98836.22
2023-03-29T13:53:26.941Z,98826.72
2023-03-29T13:56:28.422Z,98826.41
2023-03-29T13:59:05.658Z,98831.91
2023-03-29T14:02:00.654Z,98819.91
2023-03-29T14:04:32.253Z,98822.16
2023-03-29T14:07:00.865Z,98834.28
2023-03-29T14:09:31.817Z,98833.72
2023-03-29T14:12:00.880Z,98819.91
2023-03-29T14:14:30.606Z,98811.78
2023-03-29T14:16:57.746Z,98806.03
2023-03-29T14:19:38.297Z,98803.69
2023-03-29T14:22:13.729Z,98799.94
2023-03-29T14:24:48.205Z,98806.31
2023-03-29T14:27:15.876Z,98785.50
2023-03-29T14:29:45.774Z,98800.03
2023-03-29T14:32:18.354Z,98800.91
2023-03-29T14:34:50.230Z,98786.63
2023-03-29T14:37:28.683Z,98785.03
2023-03-29T14:39:56.551Z,98779.16
2023-03-29T14:42:28.913Z,98783.50
2023-03-29T14:45:04.422Z,98775.09
2023-03-29T14:47:32.817Z,98777.28
2023-03-29T14:50:04.015Z,98775.66
2023-03-29T14:52:32.120Z,98776.72
2023-03-29T14:55:02.108Z,98777.63
2023-03-29T14:57:34.364Z,98776.56
2023-03-29T15:00:08.275Z,98776.03
2023-03-29T15:02:34.997Z,98763.88
2023-03-29T15:05:25.423Z,98771.19
2023-03-29T15:07:56.052Z,98765.63
2023-03-29T15:10:23.786Z,98753.91
2023-03-29T15:12:51.180Z,98764.41
2023-03-29T15:15:18.227Z,98758.31
2023-03-29T15:17:51.807Z,98753.28
2023-03-29T15:20:29.207Z,98748.56
2023-03-29T15:23:15.425Z,98765.31
2023-03-29T15:25:58.487Z,98757.66
2023-03-29T15:28:32.671Z,98755.38
2023-03-29T15:31:20.161Z,98761.56
2023-03-29T15:33:47.084Z,98759.28
2023-03-29T15:36:15.270Z,98752.91
2023-03-29T15:38:45.112Z,98748.63
2023-03-29T15:41:14.053Z,98746.38
2023-03-29T15:43:41.574Z,98746.13
2023-03-29T15:46:08.871Z,98747.03
2023-03-29T15:48:35.541Z,98736.88
2023-03-29T15:51:05.696Z,98737.97
2023-03-29T15:53:33.531Z,98743.13
2023-03-29T15:56:02.553Z,98740.63
2023-03-29T15:58:32.088Z,98724.91
2023-03-29T16:01:33.999Z,98734.75
2023-03-29T16:04:06.084Z,98725.22
2023-03-29T16:06:33.968Z,98719.88
2023-03-29T16:09:00.982Z,98724.13
2023-03-29T16:11:28.449Z,98726.94
2023-03-29T16:13:56.554Z,98719.50
2023-03-29T16:16:23.810Z,98719.09
2023-03-29T16:18:50.726Z,98714.06
2023-03-29T16:21:19.807Z,98720.38
2023-03-29T16:23:47.425Z,98713.28
2023-03-29T16:26:16.651Z,98723.53
2023-03-29T16:28:43.344Z,98713.69
2023-03-29T16:31:11.912Z,98719.16
2023-03-29T16:33:39.918Z,98727.28
2023-03-29T16:36:07.518Z,98726.75
2023-03-29T16:38:34.275Z,98720.84
2023-03-29T16:41:01.672Z,98720.06
2023-03-29T16:43:28.585Z,98720.94
2023-03-29T16:45:55.280Z,98710.63
2023-03-29T16:48:21.965Z,98709.06
2023-03-29T16:50:49.554Z,98710.63
2023-03-29T16:53:18.596Z,98716.50
2023-03-29T16:55:46.305Z,98714.25
2023-03-29T16:58:13.387Z,98725.75
2023-03-29T17:00:40.931Z,98716.25
2023-03-29T17:03:08.104Z,98718.78
2023-03-29T17:05:41.603Z,98709.97
2023-03-29T17:08:10.238Z,98716.59
2023-03-29T17:10:39.521Z,98716.59
2023-03-29T17:13:06.770Z,98717.56
2023-03-29T17:15:33.898Z,98715.19
2023-03-29T17:18:01.139Z,98728.91
2023-03-29T17:20:28.033Z,98717.00
2023-03-29T17:22:56.096Z,98719.94
2023-03-29T17:25:23.808Z,98710.44
2023-03-29T17:27:51.426Z,98710.56
2023-03-29T17:30:18.211Z,98703.88
2023-03-29T17:32:45.851Z,98709.34
2023-03-29T17:35:13.276Z,98701.81
2023-03-29T17:37:40.266Z,98706.00
2023-03-29T17:40:13.504Z,98700.41
2023-03-29T17:42:41.738Z,98696.75
2023-03-29T17:45:10.316Z,98702.81
2023-03-29T17:47:40.562Z,98701.25
2023-03-29T17:50:09.564Z,98695.09
2023-03-29T17:52:36.946Z,98692.88
2023-03-29T17:55:03.742Z,98690.78
2023-03-29T17:57:30.434Z,98684.06
2023-03-29T17:59:57.022Z,98695.69
2023-03-29T18:02:24.601Z,98697.91
2023-03-29T18:04:51.835Z,98688.31
2023-03-29T18:07:19.099Z,98688.72
2023-03-29T18:09:46.262Z,98683.09
2023-03-29T18:12:12.917Z,98674.47
2023-03-29T18:14:39.557Z,98670.13
2023-03-29T18:17:06.598Z,98664.25
2023-03-29T18:19:33.469Z,98671.38
2023-03-29T18:22:00.874Z,98669.56
2023-03-29T18:24:27.680Z,98683.09
2023-03-29T18:26:54.518Z,98671.50
2023-03-29T18:29:21.108Z,98662.44
2023-03-29T18:31:47.865Z,98671.94
2023-03-29T18:34:14.643Z,98669.16
2023-03-29T18:36:41.518Z,98662.59
2023-03-29T18:39:08.143Z,98664.41
2023-03-29T18:41:37.295Z,98662.88
2023-03-29T18:44:04.617Z,98665.53
2023-03-29T18:46:31.983Z,98661.03
2023-03-29T18:49:00.002Z,98660.22
2023-03-29T18:51:28.203Z,98662.72
2023-03-29T18:53:55.993Z,98663.28
2023-03-29T18:56:23.141Z,98653.53
2023-03-29T18:58:49.970Z,98658.53
2023-03-29T19:01:16.740Z,98653.22
2023-03-29T19:03:43.685Z,98641.34
2023-03-29T19:06:11.907Z,98637.31
2023-03-29T19:08:41.301Z,98639.00
2023-03-29T19:11:11.324Z,98646.25
2023-03-29T19:13:38.092Z,98637.03
2023-03-29T19:16:05.255Z,98636.44
2023-03-29T19:18:32.453Z,98635.47
2023-03-29T19:20:59.173Z,98626.13
2023-03-29T19:23:27.626Z,98621.50
2023-03-29T19:25:56.180Z,98621.81
2023-03-29T19:28:23.914Z,98624.16
2023-03-29T19:30:50.747Z,98627.09
2023-03-29T19:33:17.664Z,98627.09
2023-03-29T19:35:44.442Z,98628.09
2023-03-29T19:38:11.732Z,98629.50
2023-03-29T19:40:38.704Z,98614.09
2023-03-29T19:43:05.404Z,98606.44
2023-03-29T19:45:32.058Z,98602.94
2023-03-29T19:48:02.845Z,98607.41
2023-03-29T19:50:31.674Z,98613.00
2023-03-29T19:52:58.614Z,98604.63
2023-03-29T19:55:26.508Z,98602.94
2023-03-29T19:57:53.158Z,98609.09
2023-03-29T20:00:24.466Z,98610.63
2023-03-29T20:02:52.597Z,98614.97
2023-03-29T20:05:20.311Z,98611.75
2023-03-29T20:07:47.072Z,98607.44
2023-03-29T20:10:13.884Z,98596.97
2023-03-29T20:12:40.720Z,98604.63
2023-03-29T20:15:07.901Z,98602.13
2023-03-29T20:17:35.643Z,98588.03
2023-03-29T20:20:08.244Z,98576.84
2023-03-29T20:22:35.009Z,98566.09
2023-03-29T20:25:01.647Z,98583.53
2023-03-29T20:27:29.464Z,98584.50
2023-03-29T20:29:56.152Z,98577.97
2023-03-29T20:32:22.943Z,98560.50
2023-03-29T20:34:49.734Z,98552.66
2023-03-29T20:37:16.364Z,98554.28
2023-03-29T20:39:43.213Z,98564.66
2023-03-29T20:42:09.876Z,98551.25
2023-03-29T20:44:36.677Z,98546.72
2023-03-29T20:47:04.279Z,98559.59
2023-03-29T20:49:37.162Z,98554.56
2023-03-29T20:52:05.992Z,98552.91
2023-03-29T20:54:33.351Z,98550.41
2023-03-29T20:57:00.106Z,98535.59
2023-03-29T20:59:27.571Z,98552.06
2023-03-29T21:01:54.327Z,98548.84
2023-03-29T21:04:21.059Z,98552.06
2023-03-29T21:06:50.807Z,98538.63
2023-03-29T21:09:19.351Z,98531.69
2023-03-29T21:11:45.999Z,98535.97
2023-03-29T21:14:12.684Z,98526.38
2023-03-29T21:16:42.019Z,98522.72
2023-03-29T21:19:09.531Z,98507.38
2023-03-29T21:21:36.197Z,98492.00
2023-03-29T21:24:04.523Z,98489.03
2023-03-29T21:26:31.336Z,98491.03
2023-03-29T21:28:57.978Z,98484.75
2023-03-29T21:31:24.998Z,98491.03
2023-03-29T21:33:53.155Z,98500.94
2023-03-29T21:36:19.946Z,98506.78
2023-03-29T21:38:46.626Z,98503.16
2023-03-29T21:41:13.801Z,98499.66
2023-03-29T21:43:41.149Z,98496.47
2023-03-29T21:46:08.138Z,98496.75
2023-03-29T21:48:34.997Z,98485.16
2023-03-29T21:51:02.111Z,98481.66
2023-03-29T21:53:28.914Z,98483.34
2023-03-29T21:55:55.511Z,98484.47
2023-03-29T21:58:22.356Z,98475.50
2023-03-29T22:00:49.022Z,98469.69
2023-03-29T22:03:16.749Z,98466.88
2023-03-29T22:05:44.431Z,98464.91
2023-03-29T22:08:11.766Z,98464.22
2023-03-29T22:10:41.319Z,98453.59
2023-03-29T22:13:08.937Z,98452.31
2023-03-29T22:15:39.040Z,98450.91
2023-03-29T22:18:05.829Z,98442.22
2023-03-29T22:20:34.198Z,98442.50
2023-03-29T22:23:00.824Z,98442.78
2023-03-29T22:25:27.723Z,98439.69
2023-03-29T22:27:54.379Z,98437.88
2023-03-29T22:30:24.107Z,98432.88
2023-03-29T22:32:50.849Z,98419.03
2023-03-29T22:35:17.653Z,98423.63
2023-03-29T22:37:44.300Z,98425.56
2023-03-29T22:40:12.212Z,98426.28
2023-03-29T22:42:38.955Z,98424.59
2023-03-29T22:45:06.576Z,98418.59
2023-03-29T22:47:33.401Z,98398.38
2023-03-29T22:50:00.040Z,98398.06
2023-03-29T22:52:26.681Z,98399.59
2023-03-29T22:54:53.325Z,98392.47
2023-03-29T22:57:19.998Z,98392.03
2023-03-29T22:59:46.688Z,98392.03
2023-03-29T23:02:13.289Z,98398.59
2023-03-29T23:04:40.114Z,98391.91
2023-03-29T23:07:06.795Z,98389.97
2023-03-29T23:09:33.588Z,98387.75
2023-03-29T23:12:01.169Z,98382.72
2023-03-29T23:14:28.066Z,98376.28
2023-03-29T23:16:54.721Z,98367.16
2023-03-29T23:19:21.349Z,98364.84
2023-03-29T23:21:47.984Z,98356.31
2023-03-29T23:24:18.842Z,98356.19
2023-03-29T23:26:45.930Z,98353.06
2023-03-29T23:29:13.692Z,98345.09
2023-03-29T23:31:40.346Z,98341.09
2023-03-29T23:34:07.045Z,98336.28
2023-03-29T23:36:33.636Z,98336.09
2023-03-29T23:39:00.368Z,98339.50
2023-03-29T23:41:30.597Z,98330.34
2023-03-29T23:43:57.780Z,98327.16
2023-03-29T23:46:24.798Z,98327.44
2023-03-29T23:48:51.791Z,98326.47
2023-03-29T23:51:22.933Z,98321.00
2023-03-29T23:53:50.035Z,98319.34
2023-03-29T23:56:16.967Z,98321.16
2023-03-29T23:58:44.482Z,98309.56
